Time;durP1;ratioP1;P1;durP2;ratioP2;P2;SDS_P1;SDS_P2;PMS_P1;PMS_P2;Temp;Humidity;BMP_temperature;BMP_pressure;BME280_temperature;BME280_humidity;BME280_pressure;Samples;Min_cycle;Max_cycle;Signal;HPM_P1;HPM_P2
2021/07/13 00:01:29;;;;;;;10.67;9.57;;;;;;;;;;5057967;28;20453;-73
2021/07/13 00:03:57;;;;;;;14.63;9.67;;;;;;;;;;5057711;28;20473;-74
2021/07/13 00:06:25;;;;;;;11.40;10.23;;;;;;;;;;5057569;28;20460;-73
2021/07/13 00:08:53;;;;;;;11.63;10.43;;;;;;;;;;5057322;28;20470;-74
2021/07/13 00:11:21;;;;;;;10.03;9.03;;;;;;;;;;5056636;28;20812;-73
2021/07/13 00:13:49;;;;;;;9.20;8.23;;;;;;;;;;5057563;28;20530;-73
2021/07/13 00:16:17;;;;;;;10.40;9.40;;;;;;;;;;5056910;28;20904;-73
2021/07/13 00:18:47;;;;;;;10.70;9.27;;;;;;;;;;5057060;28;20469;-73
2021/07/13 00:21:15;;;;;;;11.67;10.40;;;;;;;;;;5057435;28;20871;-74
2021/07/13 00:23:43;;;;;;;10.07;9.07;;;;;;;;;;5056996;28;20895;-74
2021/07/13 00:26:10;;;;;;;11.33;10.23;;;;;;;;;;5056895;28;20746;-73
2021/07/13 00:28:38;;;;;;;12.20;10.60;;;;;;;;;;5057622;28;20588;-73
2021/07/13 00:31:06;;;;;;;10.67;9.57;;;;;;;;;;5058384;28;20468;-74
2021/07/13 00:33:35;;;;;;;9.83;8.83;;;;;;;;;;5057553;28;20475;-74
2021/07/13 00:36:04;;;;;;;11.13;10.03;;;;;;;;;;5040233;28;20460;-73
2021/07/13 00:38:32;;;;;;;13.17;10.00;;;;;;;;;;5056754;28;20501;-74
2021/07/13 00:41:00;;;;;;;11.13;10.03;;;;;;;;;;5057011;28;20515;-74
2021/07/13 00:43:27;;;;;;;11.63;10.53;;;;;;;;;;5057568;28;20471;-73
2021/07/13 00:45:55;;;;;;;11.17;10.17;;;;;;;;;;5057391;28;20457;-74
2021/07/13 00:48:24;;;;;;;13.13;10.67;;;;;;;;;;5057269;28;20472;-73
2021/07/13 00:50:53;;;;;;;11.77;9.40;;;;;;;;;;5057291;28;20487;-74
2021/07/13 00:53:22;;;;;;;10.93;9.40;;;;;;;;;;5057527;28;20476;-73
2021/07/13 00:55:50;;;;;;;12.40;10.43;;;;;;;;;;5057929;28;20705;-74
2021/07/13 00:58:18;;;;;;;12.40;11.20;;;;;;;;;;5057315;28;20493;-73
2021/07/13 01:00:46;;;;;;;12.03;10.57;;;;;;;;;;5056983;28;20458;-74
2021/07/13 01:03:17;;;;;;;12.20;11.00;;;;;;;;;;5057084;28;20504;-73
2021/07/13 01:05:47;;;;;;;11.60;10.47;;;;;;;;;;5056878;28;20461;-73
2021/07/13 01:08:27;;;;;;;11.33;10.20;;;;;;;;;;5056964;28;20469;-73
2021/07/13 01:10:59;;;;;;;12.60;11.30;;;;;;;;;;5056849;28;20465;-73
2021/07/13 01:13:31;;;;;;;10.03;9.13;;;;;;;;;;5056938;28;20564;-73
2021/07/13 01:16:01;;;;;;;10.73;9.60;;;;;;;;;;5056388;28;20453;-73
2021/07/13 01:18:30;;;;;;;11.07;9.83;;;;;;;;;;5056545;28;20496;-73
2021/07/13 01:21:22;;;;;;;11.00;9.90;;;;;;;;;;5056390;28;20454;-72
2021/07/13 01:23:57;;;;;;;11.93;10.50;;;;;;;;;;5056620;28;20458;-73
2021/07/13 01:26:32;;;;;;;11.70;10.50;;;;;;;;;;5056706;28;20555;-73
2021/07/13 01:29:04;;;;;;;10.23;9.13;;;;;;;;;;5056163;28;20522;-73
2021/07/13 01:31:33;;;;;;;12.03;10.83;;;;;;;;;;5056096;28;20450;-73
2021/07/13 01:34:02;;;;;;;12.37;11.13;;;;;;;;;;5058621;28;20916;-73
2021/07/13 01:36:32;;;;;;;11.27;10.17;;;;;;;;;;5061293;28;20445;-73
2021/07/13 01:39:01;;;;;;;12.00;10.70;;;;;;;;;;5061653;28;20496;-73
2021/07/13 01:41:30;;;;;;;11.90;10.80;;;;;;;;;;5060540;28;20550;-73
2021/07/13 01:43:58;;;;;;;12.53;10.70;;;;;;;;;;5060299;28;20539;-73
2021/07/13 01:46:28;;;;;;;12.20;11.10;;;;;;;;;;5060919;28;20481;-73
2021/07/13 01:48:57;;;;;;;11.73;10.63;;;;;;;;;;5060246;28;20472;-73
2021/07/13 01:51:26;;;;;;;12.50;11.30;;;;;;;;;;5061053;28;20534;-73
2021/07/13 01:53:54;;;;;;;11.77;10.57;;;;;;;;;;5060676;28;20471;-73
2021/07/13 01:56:23;;;;;;;13.30;10.50;;;;;;;;;;5061035;28;20469;-73
2021/07/13 01:58:51;;;;;;;15.70;10.90;;;;;;;;;;5060721;28;20492;-73
2021/07/13 02:01:20;;;;;;;13.33;11.90;;;;;;;;;;5060631;28;20469;-73
2021/07/13 02:03:50;;;;;;;12.40;11.20;;;;;;;;;;5059982;28;20469;-73
2021/07/13 02:06:24;;;;;;;12.97;11.60;;;;;;;;;;5059927;28;20798;-73
2021/07/13 02:08:53;;;;;;;13.40;12.07;;;;;;;;;;5059220;28;20538;-73
2021/07/13 02:11:21;;;;;;;12.47;11.27;;;;;;;;;;5059786;28;20456;-73
2021/07/13 02:13:49;;;;;;;12.73;11.43;;;;;;;;;;5059555;28;20523;-73
2021/07/13 02:16:17;;;;;;;13.23;11.40;;;;;;;;;;5059797;28;20789;-73
2021/07/13 02:18:45;;;;;;;13.60;12.30;;;;;;;;;;5059085;28;20562;-73
2021/07/13 02:21:17;;;;;;;11.53;10.17;;;;;;;;;;5059613;28;20927;-73
2021/07/13 02:23:45;;;;;;;13.00;11.60;;;;;;;;;;5059404;28;20453;-73
2021/07/13 02:26:15;;;;;;;12.90;11.57;;;;;;;;;;5058541;28;20461;-73
2021/07/13 02:28:45;;;;;;;15.30;11.40;;;;;;;;;;5059553;28;20535;-73
2021/07/13 02:31:15;;;;;;;12.27;10.90;;;;;;;;;;5059848;28;20871;-73
2021/07/13 02:33:45;;;;;;;11.80;10.60;;;;;;;;;;5059331;28;20477;-73
2021/07/13 02:36:14;;;;;;;13.17;11.80;;;;;;;;;;5059485;28;20461;-73
2021/07/13 02:38:46;;;;;;;12.87;11.57;;;;;;;;;;5059024;28;20520;-73
2021/07/13 02:41:14;;;;;;;12.77;11.60;;;;;;;;;;5058876;28;20523;-73
2021/07/13 02:43:43;;;;;;;13.40;12.00;;;;;;;;;;5058751;28;20495;-73
2021/07/13 02:46:11;;;;;;;13.10;11.27;;;;;;;;;;5058655;28;20869;-73
2021/07/13 02:48:39;;;;;;;13.40;11.90;;;;;;;;;;5058846;28;20490;-73
2021/07/13 02:51:08;;;;;;;12.37;11.17;;;;;;;;;;5059788;28;20458;-73
2021/07/13 02:53:36;;;;;;;13.67;11.60;;;;;;;;;;5059184;28;20480;-73
2021/07/13 02:56:07;;;;;;;16.07;13.03;;;;;;;;;;5058572;28;20874;-73
2021/07/13 02:58:37;;;;;;;13.10;11.23;;;;;;;;;;5058563;28;20574;-73
2021/07/13 03:01:07;;;;;;;13.00;11.10;;;;;;;;;;5058559;28;20473;-73
2021/07/13 03:03:35;;;;;;;14.73;12.30;;;;;;;;;;5058495;28;20461;-73
2021/07/13 03:06:04;;;;;;;12.83;11.53;;;;;;;;;;5058712;28;20469;-73
2021/07/13 03:08:32;;;;;;;14.13;12.73;;;;;;;;;;5058496;28;20523;-72
2021/07/13 03:11:00;;;;;;;13.83;12.20;;;;;;;;;;5059338;28;20488;-73
2021/07/13 03:13:31;;;;;;;14.13;12.70;;;;;;;;;;5058385;28;20869;-73
2021/07/13 03:15:58;;;;;;;15.30;12.53;;;;;;;;;;5059207;28;20465;-73
2021/07/13 03:18:26;;;;;;;14.27;12.77;;;;;;;;;;5058118;28;20497;-73
2021/07/13 03:20:55;;;;;;;13.77;12.37;;;;;;;;;;5057796;28;20530;-73
2021/07/13 03:23:24;;;;;;;14.27;12.80;;;;;;;;;;5058413;28;20984;-73
2021/07/13 03:25:52;;;;;;;15.70;12.53;;;;;;;;;;5058389;28;20465;-73
2021/07/13 03:28:20;;;;;;;16.17;14.33;;;;;;;;;;5058694;28;20500;-73
2021/07/13 03:30:50;;;;;;;14.27;12.77;;;;;;;;;;5058674;28;20458;-73
2021/07/13 03:33:18;;;;;;;14.40;12.90;;;;;;;;;;5058209;28;20881;-73
2021/07/13 03:35:46;;;;;;;13.80;12.50;;;;;;;;;;5058179;28;20456;-73
2021/07/13 03:38:14;;;;;;;17.20;13.50;;;;;;;;;;5058481;28;20504;-74
2021/07/13 03:40:42;;;;;;;14.90;13.30;;;;;;;;;;5057776;28;20955;-73
2021/07/13 03:43:10;;;;;;;15.53;14.13;;;;;;;;;;5057720;28;20564;-73
2021/07/13 03:45:37;;;;;;;14.87;13.30;;;;;;;;;;5058625;28;20458;-73
2021/07/13 03:48:07;;;;;;;15.90;14.23;;;;;;;;;;5058668;28;20538;-73
2021/07/13 03:50:38;;;;;;;19.37;13.87;;;;;;;;;;5058387;28;20527;-73
2021/07/13 03:53:06;;;;;;;15.20;13.27;;;;;;;;;;5058234;28;20469;-73
2021/07/13 03:55:34;;;;;;;22.27;14.03;;;;;;;;;;5058160;28;20465;-73
2021/07/13 03:58:01;;;;;;;16.83;13.20;;;;;;;;;;5057749;28;20910;-73
2021/07/13 04:00:32;;;;;;;16.90;13.70;;;;;;;;;;5058849;28;20515;-73
2021/07/13 04:03:00;;;;;;;16.67;14.97;;;;;;;;;;5058170;28;20457;-73
2021/07/13 04:05:29;;;;;;;16.23;14.50;;;;;;;;;;5058194;28;20522;-73
2021/07/13 04:07:57;;;;;;;16.60;14.97;;;;;;;;;;5058439;28;20547;-73
2021/07/13 04:10:25;;;;;;;16.33;14.23;;;;;;;;;;5058067;28;20518;-73
2021/07/13 04:12:53;;;;;;;17.60;15.70;;;;;;;;;;5057931;28;20462;-73
2021/07/13 04:15:21;;;;;;;16.23;14.07;;;;;;;;;;5058096;28;20453;-73
2021/07/13 04:17:49;;;;;;;16.13;14.47;;;;;;;;;;5058241;28;20471;-73
2021/07/13 04:20:17;;;;;;;16.43;14.73;;;;;;;;;;5057325;28;20897;-73
2021/07/13 04:22:46;;;;;;;15.37;13.20;;;;;;;;;;5057833;28;20468;-73
2021/07/13 04:25:14;;;;;;;15.80;14.10;;;;;;;;;;5057162;28;20831;-72
2021/07/13 04:27:42;;;;;;;17.50;14.40;;;;;;;;;;5057398;28;20484;-72
2021/07/13 04:30:11;;;;;;;17.17;14.27;;;;;;;;;;5057388;28;20726;-72
2021/07/13 04:32:38;;;;;;;17.13;14.80;;;;;;;;;;5057504;28;20473;-73
2021/07/13 04:35:07;;;;;;;17.17;15.50;;;;;;;;;;5057849;28;20480;-73
2021/07/13 04:37:35;;;;;;;17.03;15.23;;;;;;;;;;5056842;28;20465;-73
2021/07/13 04:40:05;;;;;;;15.00;13.40;;;;;;;;;;5057075;28;20493;-74
2021/07/13 04:42:33;;;;;;;21.60;14.10;;;;;;;;;;5057529;28;20462;-73
2021/07/13 04:45:01;;;;;;;16.37;12.60;;;;;;;;;;5056874;28;20565;-73
2021/07/13 04:47:28;;;;;;;16.33;14.63;;;;;;;;;;5056660;28;20761;-73
2021/07/13 04:49:57;;;;;;;16.30;14.67;;;;;;;;;;5057157;28;20481;-73
2021/07/13 04:52:24;;;;;;;16.60;14.87;;;;;;;;;;5056701;28;20460;-73
2021/07/13 04:54:52;;;;;;;21.20;15.20;;;;;;;;;;5056309;28;20736;-73
2021/07/13 04:57:21;;;;;;;16.37;14.67;;;;;;;;;;5055290;28;20476;-73
2021/07/13 04:59:49;;;;;;;15.50;14.00;;;;;;;;;;5053596;28;20493;-73
2021/07/13 05:02:18;;;;;;;17.20;15.13;;;;;;;;;;5055583;28;20469;-73
2021/07/13 05:04:49;;;;;;;19.23;15.33;;;;;;;;;;5055021;28;20748;-73
2021/07/13 05:07:18;;;;;;;15.43;13.50;;;;;;;;;;5055608;28;20457;-73
2021/07/13 05:09:46;;;;;;;13.40;11.70;;;;;;;;;;5053994;28;20571;-74
2021/07/13 05:12:14;;;;;;;14.70;13.10;;;;;;;;;;5055936;28;20934;-73
2021/07/13 05:14:43;;;;;;;17.47;12.60;;;;;;;;;;5053863;28;20477;-73
2021/07/13 05:17:12;;;;;;;14.83;13.23;;;;;;;;;;5054966;28;20471;-73
2021/07/13 05:19:40;;;;;;;13.90;12.27;;;;;;;;;;5052745;28;20602;-74
2021/07/13 05:22:10;;;;;;;15.23;12.90;;;;;;;;;;5053003;28;20488;-73
2021/07/13 05:24:37;;;;;;;13.37;11.97;;;;;;;;;;5053521;28;20470;-73
2021/07/13 05:27:05;;;;;;;14.83;12.53;;;;;;;;;;5054432;28;20746;-73
2021/07/13 05:29:36;;;;;;;13.80;12.30;;;;;;;;;;5054794;28;20865;-73
2021/07/13 05:32:05;;;;;;;15.13;13.07;;;;;;;;;;5051767;28;20831;-74
2021/07/13 05:34:33;;;;;;;14.53;13.10;;;;;;;;;;5051975;28;20454;-74
2021/07/13 05:37:01;;;;;;;15.40;13.90;;;;;;;;;;5053637;28;20779;-73
2021/07/13 05:39:29;;;;;;;14.63;13.33;;;;;;;;;;5053701;28;20493;-73
2021/07/13 05:41:57;;;;;;;15.03;13.40;;;;;;;;;;5054102;28;20464;-73
2021/07/13 05:44:24;;;;;;;15.93;14.23;;;;;;;;;;5053040;28;20472;-73
2021/07/13 05:46:52;;;;;;;15.63;14.13;;;;;;;;;;5053429;28;20469;-73
2021/07/13 05:49:21;;;;;;;15.70;14.13;;;;;;;;;;5052297;28;20461;-73
2021/07/13 05:51:52;;;;;;;13.33;12.03;;;;;;;;;;5052087;28;20801;-73
2021/07/13 05:54:19;;;;;;;15.10;13.60;;;;;;;;;;5053628;28;20903;-74
2021/07/13 05:56:47;;;;;;;14.97;13.33;;;;;;;;;;5054391;28;20488;-73
2021/07/13 05:59:15;;;;;;;14.90;13.50;;;;;;;;;;5054540;28;20511;-73
2021/07/13 06:01:43;;;;;;;14.67;13.20;;;;;;;;;;5053951;28;20473;-73
2021/07/13 06:04:10;;;;;;;14.97;13.53;;;;;;;;;;5053453;28;20777;-74
2021/07/13 06:06:40;;;;;;;13.57;12.27;;;;;;;;;;5051943;28;20452;-73
2021/07/13 06:09:07;;;;;;;17.00;13.37;;;;;;;;;;5054037;28;20458;-73
2021/07/13 06:11:35;;;;;;;16.73;14.93;;;;;;;;;;5054428;28;20468;-74
2021/07/13 06:14:03;;;;;;;17.17;15.47;;;;;;;;;;5055454;28;20472;-72
2021/07/13 06:16:31;;;;;;;16.10;14.17;;;;;;;;;;5053465;28;20473;-74
2021/07/13 06:18:59;;;;;;;13.87;12.40;;;;;;;;;;5052269;28;20503;-73
2021/07/13 06:21:27;;;;;;;15.37;13.57;;;;;;;;;;5052364;28;20524;-73
2021/07/13 06:23:57;;;;;;;15.37;12.67;;;;;;;;;;5058972;28;20457;-73
2021/07/13 06:26:24;;;;;;;15.17;12.43;;;;;;;;;;5057127;28;20457;-73
2021/07/13 06:28:52;;;;;;;13.43;12.13;;;;;;;;;;5057119;28;20453;-73
2021/07/13 06:31:20;;;;;;;15.07;13.60;;;;;;;;;;5054054;28;20842;-73
2021/07/13 06:33:48;;;;;;;15.10;13.50;;;;;;;;;;5057639;28;20457;-73
2021/07/13 06:36:22;;;;;;;13.27;11.97;;;;;;;;;;5056074;28;20529;-73
2021/07/13 06:38:50;;;;;;;13.30;11.90;;;;;;;;;;5056515;28;20473;-74
2021/07/13 06:41:23;;;;;;;18.17;13.07;;;;;;;;;;5058484;28;20454;-73
2021/07/13 06:43:53;;;;;;;13.80;12.50;;;;;;;;;;5058101;28;20473;-74
2021/07/13 06:46:21;;;;;;;14.20;12.80;;;;;;;;;;5057337;28;20487;-71
2021/07/13 06:48:50;;;;;;;14.87;12.67;;;;;;;;;;5055746;28;20465;-72
2021/07/13 06:51:18;;;;;;;13.33;12.03;;;;;;;;;;5058060;28;20467;-73
2021/07/13 06:53:46;;;;;;;14.20;12.80;;;;;;;;;;5057351;28;20457;-73
2021/07/13 06:56:16;;;;;;;12.70;11.40;;;;;;;;;;5057570;28;20472;-72
2021/07/13 06:58:45;;;;;;;12.40;11.20;;;;;;;;;;5058960;28;20555;-72
2021/07/13 07:01:14;;;;;;;12.40;11.13;;;;;;;;;;5051136;28;20454;-73
2021/07/13 07:03:44;;;;;;;13.43;11.70;;;;;;;;;;5057264;28;20466;-73
2021/07/13 07:06:12;;;;;;;13.97;11.50;;;;;;;;;;5056437;28;20604;-72
2021/07/13 07:08:48;;;;;;;12.60;11.40;;;;;;;;;;5056884;28;20470;-72
2021/07/13 07:11:16;;;;;;;13.17;11.90;;;;;;;;;;5055584;28;20457;-72
2021/07/13 07:13:46;;;;;;;11.70;10.50;;;;;;;;;;5056934;28;20527;-72
2021/07/13 07:16:16;;;;;;;13.73;12.33;;;;;;;;;;5058235;28;20956;-73
2021/07/13 07:18:47;;;;;;;15.27;12.17;;;;;;;;;;5057786;28;20704;-73
2021/07/13 07:21:16;;;;;;;13.20;10.70;;;;;;;;;;5039501;28;20570;-72
2021/07/13 07:23:44;;;;;;;12.27;11.10;;;;;;;;;;5056612;28;20453;-72
2021/07/13 07:26:12;;;;;;;11.20;10.20;;;;;;;;;;5057272;28;20464;-73
2021/07/13 07:28:40;;;;;;;14.20;11.73;;;;;;;;;;5063598;28;20517;-72
2021/07/13 07:31:09;;;;;;;12.17;10.87;;;;;;;;;;5076429;28;20452;-73
2021/07/13 07:33:37;;;;;;;13.00;11.60;;;;;;;;;;5077181;28;20539;-73
2021/07/13 07:36:08;;;;;;;12.60;10.97;;;;;;;;;;5072398;28;21035;-73
2021/07/13 07:38:36;;;;;;;11.50;10.30;;;;;;;;;;5062471;28;20460;-73
2021/07/13 07:41:04;;;;;;;14.07;11.27;;;;;;;;;;5054727;28;20559;-73
2021/07/13 07:43:32;;;;;;;15.30;13.80;;;;;;;;;;5057040;28;20893;-73
2021/07/13 07:46:00;;;;;;;10.73;9.73;;;;;;;;;;5055565;28;20465;-72
2021/07/13 07:48:29;;;;;;;11.90;10.70;;;;;;;;;;5056913;28;20464;-72
2021/07/13 07:50:57;;;;;;;12.37;9.67;;;;;;;;;;5047368;28;20463;-73
2021/07/13 07:53:25;;;;;;;11.70;10.57;;;;;;;;;;5054215;28;20603;-72
2021/07/13 07:55:54;;;;;;;11.37;10.17;;;;;;;;;;5056582;28;20464;-72
2021/07/13 07:58:26;;;;;;;11.80;10.60;;;;;;;;;;5055806;28;20461;-74
2021/07/13 08:00:54;;;;;;;12.53;11.23;;;;;;;;;;5056612;28;20500;-72
2021/07/13 08:03:22;;;;;;;11.47;10.13;;;;;;;;;;5056921;28;20491;-74
2021/07/13 08:05:55;;;;;;;9.53;8.63;;;;;;;;;;5055560;28;20461;-74
2021/07/13 08:08:23;;;;;;;13.30;11.87;;;;;;;;;;5054965;28;20507;-74
2021/07/13 08:10:56;;;;;;;12.60;11.10;;;;;;;;;;5071597;28;21074;-73
2021/07/13 08:13:24;;;;;;;11.67;10.57;;;;;;;;;;5068432;28;20461;-73
2021/07/13 08:15:57;;;;;;;11.57;10.47;;;;;;;;;;5054647;28;20480;-74
2021/07/13 08:18:26;;;;;;;10.43;9.43;;;;;;;;;;5069413;28;20968;-73
2021/07/13 08:20:59;;;;;;;8.87;7.97;;;;;;;;;;5055638;28;20512;-74
2021/07/13 08:23:27;;;;;;;9.33;8.10;;;;;;;;;;5055416;28;20507;-74
2021/07/13 08:25:54;;;;;;;10.20;8.00;;;;;;;;;;5056239;28;20556;-73
2021/07/13 08:28:22;;;;;;;8.87;8.07;;;;;;;;;;5056373;28;21145;-73
2021/07/13 08:30:50;;;;;;;7.80;7.00;;;;;;;;;;5054290;28;20523;-74
2021/07/13 08:33:18;;;;;;;9.23;8.33;;;;;;;;;;5048368;28;20500;-73
2021/07/13 08:35:47;;;;;;;8.60;7.70;;;;;;;;;;5054588;28;20464;-72
2021/07/13 08:38:36;;;;;;;8.73;7.97;;;;;;;;;;5056853;28;20465;-73
2021/07/13 08:41:21;;;;;;;9.80;8.53;;;;;;;;;;5063511;28;20476;-72
2021/07/13 08:43:54;;;;;;;9.57;7.30;;;;;;;;;;5049451;28;20476;-73
2021/07/13 08:46:47;;;;;;;10.00;9.00;;;;;;;;;;5051558;28;20595;-73
2021/07/13 08:49:25;;;;;;;9.30;8.50;;;;;;;;;;5049347;28;20457;-72
2021/07/13 08:51:56;;;;;;;10.00;9.10;;;;;;;;;;5054402;28;20545;-73
2021/07/13 08:54:26;;;;;;;9.10;8.03;;;;;;;;;;5057932;28;20449;-72
2021/07/13 08:56:54;;;;;;;11.10;8.80;;;;;;;;;;5043056;28;21020;-73
2021/07/13 08:59:25;;;;;;;10.10;9.10;;;;;;;;;;5050494;28;20541;-73
2021/07/13 09:01:57;;;;;;;10.30;9.30;;;;;;;;;;5053454;28;20472;-72
2021/07/13 09:04:44;;;;;;;10.07;9.00;;;;;;;;;;5050889;28;20438;-72
2021/07/13 09:07:14;;;;;;;10.67;9.57;;;;;;;;;;5042578;28;20655;-74
2021/07/13 09:09:47;;;;;;;10.90;9.80;;;;;;;;;;5050174;28;20869;-71
2021/07/13 09:12:17;;;;;;;15.80;9.17;;;;;;;;;;5054187;28;20469;-72
2021/07/13 09:14:56;;;;;;;8.67;7.87;;;;;;;;;;5054293;28;20476;-71
2021/07/13 09:17:41;;;;;;;10.27;8.63;;;;;;;;;;5055124;28;20465;-72
2021/07/13 09:20:21;;;;;;;9.30;8.40;;;;;;;;;;5041786;28;20592;-73
2021/07/13 09:23:06;;;;;;;9.50;8.60;;;;;;;;;;5056576;28;20465;-73
2021/07/13 09:25:40;;;;;;;12.97;10.00;;;;;;;;;;5056543;28;20465;-72
2021/07/13 09:28:16;;;;;;;8.83;8.00;;;;;;;;;;5060510;28;20493;-72
2021/07/13 09:30:49;;;;;;;9.63;8.73;;;;;;;;;;5055088;28;20496;-73
2021/07/13 09:33:21;;;;;;;12.00;8.90;;;;;;;;;;5036296;28;20520;-73
2021/07/13 09:36:07;;;;;;;9.60;8.70;;;;;;;;;;5053076;28;20453;-72
2021/07/13 09:38:36;;;;;;;8.57;7.77;;;;;;;;;;5054422;28;20445;-72
2021/07/13 09:41:15;;;;;;;8.97;8.17;;;;;;;;;;5065400;28;20514;-73
2021/07/13 09:43:53;;;;;;;9.53;8.63;;;;;;;;;;5062492;28;20457;-73
2021/07/13 09:46:35;;;;;;;12.77;8.40;;;;;;;;;;5052060;28;20457;-73
2021/07/13 09:49:21;;;;;;;10.40;9.40;;;;;;;;;;5052453;28;20554;-73
2021/07/13 09:51:57;;;;;;;8.87;8.07;;;;;;;;;;5052443;28;20753;-73
2021/07/13 09:54:30;;;;;;;8.33;7.53;;;;;;;;;;5052349;28;20461;-73
2021/07/13 09:57:01;;;;;;;9.93;8.00;;;;;;;;;;5055911;28;20545;-73
2021/07/13 09:59:29;;;;;;;9.40;8.40;;;;;;;;;;5055778;28;20488;-72
2021/07/13 10:01:58;;;;;;;11.90;7.90;;;;;;;;;;5056408;28;20466;-73
2021/07/13 10:04:26;;;;;;;10.90;7.10;;;;;;;;;;5037680;28;20466;-72
2021/07/13 10:06:55;;;;;;;9.13;7.00;;;;;;;;;;5051288;28;20873;-72
2021/07/13 10:09:29;;;;;;;8.33;7.53;;;;;;;;;;5057846;28;20943;-73
2021/07/13 10:12:03;;;;;;;7.80;7.10;;;;;;;;;;5062128;28;20487;-73
2021/07/13 10:14:31;;;;;;;9.33;8.00;;;;;;;;;;5059166;28;20843;-72
2021/07/13 10:17:16;;;;;;;8.70;6.83;;;;;;;;;;5052897;28;20482;-72
2021/07/13 10:19:49;;;;;;;8.57;7.70;;;;;;;;;;5049702;28;20460;-72
2021/07/13 10:22:19;;;;;;;7.03;6.33;;;;;;;;;;5058707;28;20459;-72
2021/07/13 10:24:51;;;;;;;9.23;6.00;;;;;;;;;;5058459;28;20457;-72
2021/07/13 10:27:26;;;;;;;7.63;6.40;;;;;;;;;;5057304;28;20453;-73
2021/07/13 10:29:55;;;;;;;5.47;4.97;;;;;;;;;;5057713;28;20526;-72
2021/07/13 10:32:33;;;;;;;5.40;4.90;;;;;;;;;;5057715;28;20472;-72
2021/07/13 10:35:04;;;;;;;6.13;5.53;;;;;;;;;;5056953;28;20449;-72
2021/07/13 10:37:35;;;;;;;5.67;4.80;;;;;;;;;;5048988;28;20477;-73
2021/07/13 10:40:04;;;;;;;6.23;5.60;;;;;;;;;;5041795;28;20481;-72
2021/07/13 10:42:53;;;;;;;5.40;4.90;;;;;;;;;;5061209;28;20539;-72
2021/07/13 10:45:35;;;;;;;8.00;7.20;;;;;;;;;;5058144;28;20472;-73
2021/07/13 10:48:09;;;;;;;5.10;4.60;;;;;;;;;;5059307;28;20519;-72
2021/07/13 10:50:53;;;;;;;5.43;4.40;;;;;;;;;;5059012;28;20479;-72
2021/07/13 10:53:22;;;;;;;5.77;5.27;;;;;;;;;;5057629;28;20453;-73
2021/07/13 10:55:57;;;;;;;5.80;5.27;;;;;;;;;;5057271;28;20473;-73
2021/07/13 10:58:41;;;;;;;7.07;6.30;;;;;;;;;;5057090;28;20487;-72
2021/07/13 11:01:21;;;;;;;6.27;5.67;;;;;;;;;;5056626;28;20907;-73
2021/07/13 11:03:54;;;;;;;6.83;5.83;;;;;;;;;;5056877;28;20523;-73
2021/07/13 11:06:40;;;;;;;7.37;5.63;;;;;;;;;;5050547;28;20613;-74
2021/07/13 11:09:21;;;;;;;6.70;6.07;;;;;;;;;;5051803;28;20565;-73
2021/07/13 11:11:49;;;;;;;7.10;5.87;;;;;;;;;;5051670;28;20457;-74
2021/07/13 11:14:19;;;;;;;7.83;6.87;;;;;;;;;;5062767;28;20557;-73
2021/07/13 11:16:56;;;;;;;5.30;4.80;;;;;;;;;;5074564;28;20452;-73
2021/07/13 11:19:34;;;;;;;6.23;5.63;;;;;;;;;;5053597;28;20461;-74
2021/07/13 11:22:01;;;;;;;5.73;5.23;;;;;;;;;;5044000;28;20517;-74
2021/07/13 11:24:29;;;;;;;6.10;5.27;;;;;;;;;;5053335;28;20566;-73
2021/07/13 11:27:01;;;;;;;5.80;5.20;;;;;;;;;;5055920;28;20453;-73
2021/07/13 11:29:33;;;;;;;6.97;5.63;;;;;;;;;;5058140;28;20569;-74
2021/07/13 11:32:02;;;;;;;5.67;4.73;;;;;;;;;;5057752;28;20516;-72
2021/07/13 11:34:35;;;;;;;4.30;3.83;;;;;;;;;;5055844;28;20465;-73
2021/07/13 11:37:04;;;;;;;5.83;4.90;;;;;;;;;;5051175;28;20472;-73
2021/07/13 11:39:33;;;;;;;8.93;5.20;;;;;;;;;;5055121;28;20449;-73
2021/07/13 11:42:06;;;;;;;7.00;4.47;;;;;;;;;;5060884;28;20496;-73
2021/07/13 11:44:36;;;;;;;4.40;3.87;;;;;;;;;;5054289;28;20450;-73
2021/07/13 11:47:05;;;;;;;4.73;4.13;;;;;;;;;;5055052;28;20469;-73
2021/07/13 11:49:39;;;;;;;7.73;4.60;;;;;;;;;;5056889;28;20597;-73
2021/07/13 11:52:10;;;;;;;4.73;4.23;;;;;;;;;;5053325;28;20472;-73
2021/07/13 11:54:38;;;;;;;5.70;4.93;;;;;;;;;;5056168;28;20452;-73
2021/07/13 11:57:18;;;;;;;5.70;4.70;;;;;;;;;;5071915;28;20484;-73
2021/07/13 11:59:55;;;;;;;6.40;5.53;;;;;;;;;;5055224;28;20469;-73
2021/07/13 12:02:23;;;;;;;6.07;5.03;;;;;;;;;;5052038;28;20452;-73
2021/07/13 12:04:51;;;;;;;6.10;4.20;;;;;;;;;;5054652;28;20477;-73
2021/07/13 12:07:22;;;;;;;4.40;3.90;;;;;;;;;;5054431;28;20457;-73
2021/07/13 12:09:50;;;;;;;4.70;4.10;;;;;;;;;;5035429;28;20464;-72
2021/07/13 12:12:21;;;;;;;4.50;4.10;;;;;;;;;;5034965;28;20458;-73
2021/07/13 12:14:53;;;;;;;6.40;4.90;;;;;;;;;;5041219;28;20457;-73
2021/07/13 12:17:22;;;;;;;5.17;4.17;;;;;;;;;;5053248;28;20458;-73
2021/07/13 12:19:55;;;;;;;5.43;3.80;;;;;;;;;;5050526;28;20551;-74
2021/07/13 12:22:23;;;;;;;5.13;4.63;;;;;;;;;;5053313;28;20547;-72
2021/07/13 12:24:53;;;;;;;5.70;3.40;;;;;;;;;;5054275;28;20469;-73
2021/07/13 12:27:30;;;;;;;4.27;3.60;;;;;;;;;;5053432;28;20841;-73
2021/07/13 12:30:07;;;;;;;4.97;4.40;;;;;;;;;;5054459;28;20555;-73
2021/07/13 12:32:35;;;;;;;3.90;3.43;;;;;;;;;;5053953;28;20536;-73
2021/07/13 12:35:06;;;;;;;4.20;3.30;;;;;;;;;;5054924;28;20555;-73
2021/07/13 12:37:34;;;;;;;5.67;4.10;;;;;;;;;;5055213;28;20811;-74
2021/07/13 12:40:10;;;;;;;7.37;3.87;;;;;;;;;;5055217;28;20472;-73
2021/07/13 12:42:42;;;;;;;4.70;3.97;;;;;;;;;;5052863;28;20471;-74
2021/07/13 12:45:20;;;;;;;4.00;3.10;;;;;;;;;;5037120;28;20465;-74
2021/07/13 12:47:49;;;;;;;3.93;3.53;;;;;;;;;;5061424;28;20558;-74
2021/07/13 12:50:21;;;;;;;5.37;3.43;;;;;;;;;;5053774;28;20468;-73
2021/07/13 12:52:50;;;;;;;5.80;3.60;;;;;;;;;;5054137;28;20500;-73
2021/07/13 12:55:23;;;;;;;4.30;3.90;;;;;;;;;;5054748;28;20468;-74
2021/07/13 13:01:05;;;;;;;4.07;3.50;;;;;;;;;;5022854;28;20480;-72
2021/07/13 13:03:35;;;;;;;4.30;2.83;;;;;;;;;;5064825;28;20468;-73
2021/07/13 13:06:09;;;;;;;8.47;3.77;;;;;;;;;;5059205;28;20481;-72
2021/07/13 13:08:47;;;;;;;3.83;3.30;;;;;;;;;;5042143;28;20504;-73
2021/07/13 13:11:18;;;;;;;3.83;3.43;;;;;;;;;;5054020;28;20484;-73
2021/07/13 13:14:02;;;;;;;4.57;3.77;;;;;;;;;;5049613;28;20556;-73
2021/07/13 13:16:37;;;;;;;3.63;3.00;;;;;;;;;;5052075;28;20546;-73
2021/07/13 13:19:09;;;;;;;4.20;2.90;;;;;;;;;;5063527;28;20462;-74
2021/07/13 13:21:41;;;;;;;3.50;2.90;;;;;;;;;;5054901;28;20485;-74
2021/07/13 13:24:14;;;;;;;4.97;3.77;;;;;;;;;;5054395;28;20889;-73
2021/07/13 13:26:46;;;;;;;3.37;2.87;;;;;;;;;;5054193;28;20473;-72
2021/07/13 13:29:16;;;;;;;3.83;3.17;;;;;;;;;;5048042;28;20457;-73
2021/07/13 13:31:49;;;;;;;4.03;3.30;;;;;;;;;;5054351;28;20465;-73
2021/07/13 13:34:19;;;;;;;4.60;3.83;;;;;;;;;;5055273;28;20916;-73
2021/07/13 13:36:59;;;;;;;4.10;3.50;;;;;;;;;;5054501;28;20521;-73
2021/07/13 13:39:28;;;;;;;5.10;3.40;;;;;;;;;;5048325;28;20530;-73
2021/07/13 13:42:04;;;;;;;4.67;3.50;;;;;;;;;;5058830;28;20583;-73
2021/07/13 13:44:48;;;;;;;4.20;2.67;;;;;;;;;;5054855;28;20497;-72
2021/07/13 13:47:32;;;;;;;3.40;2.90;;;;;;;;;;5053819;28;20550;-74
2021/07/13 13:50:01;;;;;;;3.60;3.20;;;;;;;;;;5053731;28;20782;-74
2021/07/13 13:52:28;;;;;;;6.53;5.80;;;;;;;;;;5052851;28;20889;-73
2021/07/13 13:54:56;;;;;;;5.97;3.33;;;;;;;;;;5053118;28;20457;-73
2021/07/13 13:57:32;;;;;;;3.97;3.20;;;;;;;;;;5053339;28;21074;-73
2021/07/13 14:00:06;;;;;;;3.90;3.07;;;;;;;;;;5054127;28;20522;-72
2021/07/13 14:03:06;;;;;;;3.33;2.67;;;;;;;;;;5056112;28;20786;-72
2021/07/13 14:05:35;;;;;;;3.93;2.63;;;;;;;;;;5056285;28;20457;-73
2021/07/13 14:08:10;;;;;;;5.37;3.50;;;;;;;;;;5055489;28;20460;-73
2021/07/13 14:10:38;;;;;;;3.57;2.67;;;;;;;;;;5057432;28;20464;-74
2021/07/13 14:13:58;;;;;;;5.10;3.23;;;;;;;;;;5066402;28;20465;-74
2021/07/13 14:16:27;;;;;;;3.70;3.10;;;;;;;;;;5068731;28;20468;-73
2021/07/13 14:19:27;;;;;;;;;;;;;;;;;;;;;
2021/07/13 14:22:08;;;;;;;3.40;3.10;;;;;;;;;;5063419;28;20528;-73
2021/07/13 14:24:49;;;;;;;3.70;3.30;;;;;;;;;;5045778;28;20464;-74
2021/07/13 14:27:30;;;;;;;7.13;3.40;;;;;;;;;;5047430;28;20466;-73
2021/07/13 14:30:26;;;;;;;5.30;3.90;;;;;;;;;;5050452;28;20476;-73
2021/07/13 14:32:54;;;;;;;3.90;3.40;;;;;;;;;;5041793;28;20561;-72
2021/07/13 14:35:22;;;;;;;5.47;3.07;;;;;;;;;;5047947;28;20457;-72
2021/07/13 14:37:57;;;;;;;5.80;3.27;;;;;;;;;;5050172;28;20458;-73
2021/07/13 14:40:28;;;;;;;4.10;3.03;;;;;;;;;;5039524;28;20456;-73
2021/07/13 14:42:55;;;;;;;6.43;3.30;;;;;;;;;;5057000;28;20485;-73
2021/07/13 14:45:27;;;;;;;3.83;3.30;;;;;;;;;;5060373;28;21066;-72
2021/07/13 14:50:46;;;;;;;5.63;3.53;;;;;;;;;;5031546;28;20454;-72
2021/07/13 14:53:30;;;;;;;4.43;3.23;;;;;;;;;;5056839;28;20458;-73
2021/07/13 14:56:14;;;;;;;4.00;3.60;;;;;;;;;;5055167;28;20471;-75
2021/07/13 14:58:45;;;;;;;4.10;3.50;;;;;;;;;;5057899;28;20461;-74